createdAt,value
2023-05-19T00:00:02.364Z,13.71
2023-05-19T00:02:39.739Z,13.69
2023-05-19T00:05:07.444Z,13.63
2023-05-19T00:07:38.243Z,13.61
2023-05-19T00:10:06.506Z,13.73
2023-05-19T00:12:33.680Z,13.67
2023-05-19T00:15:00.863Z,13.68
2023-05-19T00:17:27.830Z,13.69
2023-05-19T00:19:54.864Z,13.67
2023-05-19T00:22:21.835Z,13.61
2023-05-19T00:24:49.224Z,13.60
2023-05-19T00:27:16.245Z,13.47
2023-05-19T00:29:43.227Z,13.58
2023-05-19T00:32:10.393Z,13.56
2023-05-19T00:34:37.524Z,13.49
2023-05-19T00:37:04.489Z,13.50
2023-05-19T00:39:31.417Z,13.48
2023-05-19T00:41:58.446Z,13.57
2023-05-19T00:44:25.457Z,13.51
2023-05-19T00:46:52.376Z,13.53
2023-05-19T00:49:19.283Z,13.55
2023-05-19T00:51:46.437Z,13.40
2023-05-19T00:54:13.419Z,13.49
2023-05-19T00:56:40.534Z,13.45
2023-05-19T00:59:08.147Z,13.44
2023-05-19T01:01:35.314Z,13.40
2023-05-19T01:04:04.634Z,13.40
2023-05-19T01:06:31.841Z,13.44
2023-05-19T01:08:59.231Z,13.40
2023-05-19T01:11:26.148Z,13.30
2023-05-19T01:13:53.060Z,13.26
2023-05-19T01:17:06.692Z,13.15
2023-05-19T01:19:56.564Z,13.10
2023-05-19T01:23:05.247Z,13.01
2023-05-19T01:26:03.271Z,12.97
2023-05-19T01:28:36.265Z,12.96
2023-05-19T01:31:07.507Z,12.96
2023-05-19T01:33:35.978Z,12.93
2023-05-19T01:36:05.221Z,12.95
2023-05-19T01:38:34.140Z,12.88
2023-05-19T01:41:03.961Z,12.88
2023-05-19T01:43:31.784Z,12.80
2023-05-19T01:45:59.463Z,12.75
2023-05-19T01:48:27.261Z,12.82
2023-05-19T01:50:55.130Z,12.87
2023-05-19T01:53:22.070Z,12.83
2023-05-19T01:55:57.030Z,12.90
2023-05-19T01:58:48.379Z,12.93
2023-05-19T02:01:24.708Z,12.93
2023-05-19T02:04:05.353Z,12.91
2023-05-19T02:06:51.297Z,12.93
2023-05-19T02:09:54.764Z,12.90
2023-05-19T02:12:34.610Z,12.82
2023-05-19T02:15:05.050Z,12.87
2023-05-19T02:17:41.671Z,12.85
2023-05-19T02:20:10.513Z,12.73
2023-05-19T02:22:37.696Z,12.71
2023-05-19T02:25:05.071Z,12.79
2023-05-19T02:27:34.336Z,12.78
2023-05-19T02:30:03.976Z,12.67
2023-05-19T02:32:32.185Z,12.72
2023-05-19T02:35:00.193Z,12.73
2023-05-19T02:37:28.715Z,12.66
2023-05-19T02:39:56.414Z,12.66
2023-05-19T02:42:23.768Z,12.58
2023-05-19T02:44:52.301Z,12.57
2023-05-19T02:47:20.135Z,12.59
2023-05-19T02:49:47.295Z,12.57
2023-05-19T02:52:15.801Z,12.59
2023-05-19T02:54:43.260Z,12.59
2023-05-19T02:57:11.151Z,12.60
2023-05-19T02:59:38.205Z,12.57
2023-05-19T03:02:05.415Z,12.59
2023-05-19T03:04:32.455Z,12.60
2023-05-19T03:06:59.411Z,12.56
2023-05-19T03:09:26.645Z,12.55
2023-05-19T03:11:54.314Z,12.61
2023-05-19T03:14:24.352Z,12.61
2023-05-19T03:16:51.720Z,12.60
2023-05-19T03:19:18.948Z,12.60
2023-05-19T03:21:46.503Z,12.60
2023-05-19T03:24:13.979Z,12.57
2023-05-19T03:26:41.096Z,12.63
2023-05-19T03:29:08.506Z,12.59
2023-05-19T03:31:37.394Z,12.55
2023-05-19T03:34:05.365Z,12.77
2023-05-19T03:36:32.413Z,12.79
2023-05-19T03:39:00.580Z,12.77
2023-05-19T03:41:27.838Z,12.83
2023-05-19T03:43:55.671Z,12.69
2023-05-19T03:46:22.868Z,12.94
2023-05-19T03:49:02.562Z,12.88
2023-05-19T03:51:30.263Z,12.87
2023-05-19T03:54:05.319Z,12.92
2023-05-19T03:56:32.939Z,12.90
2023-05-19T03:59:00.309Z,12.96
2023-05-19T04:01:27.381Z,12.81
2023-05-19T04:03:54.562Z,12.97
2023-05-19T04:06:22.280Z,12.92
2023-05-19T04:08:49.548Z,12.93
2023-05-19T04:11:16.615Z,12.97
2023-05-19T04:13:45.170Z,12.96
2023-05-19T04:16:12.715Z,12.98
2023-05-19T04:18:39.850Z,13.03
2023-05-19T04:21:08.705Z,13.11
2023-05-19T04:23:35.747Z,13.21
2023-05-19T04:26:03.838Z,13.18
2023-05-19T04:28:30.942Z,13.17
2023-05-19T04:30:58.877Z,13.35
2023-05-19T04:33:26.316Z,13.38
2023-05-19T04:35:53.489Z,13.46
2023-05-19T04:38:22.226Z,13.61
2023-05-19T04:40:50.844Z,13.73
2023-05-19T04:43:19.610Z,13.86
2023-05-19T04:45:47.581Z,13.93
2023-05-19T04:48:15.232Z,13.97
2023-05-19T04:50:42.490Z,14.14
2023-05-19T04:53:19.086Z,14.21
2023-05-19T04:55:46.211Z,14.35
2023-05-19T04:58:13.856Z,14.56
2023-05-19T05:00:40.840Z,14.71
2023-05-19T05:03:09.211Z,14.67
2023-05-19T05:05:36.295Z,14.94
2023-05-19T05:08:03.353Z,15.00
2023-05-19T05:10:35.749Z,15.02
2023-05-19T05:13:03.109Z,15.08
2023-05-19T05:15:30.538Z,15.14
2023-05-19T05:18:00.817Z,15.19
2023-05-19T05:20:28.249Z,15.31
2023-05-19T05:22:56.077Z,15.46
2023-05-19T05:25:23.591Z,15.59
2023-05-19T05:27:51.242Z,15.76
2023-05-19T05:30:18.713Z,15.87
2023-05-19T05:32:46.465Z,15.97
2023-05-19T05:35:28.229Z,15.99
2023-05-19T05:37:55.986Z,16.09
2023-05-19T05:40:23.192Z,16.24
2023-05-19T05:42:50.268Z,16.35
2023-05-19T05:45:20.147Z,16.37
2023-05-19T05:47:47.748Z,16.50
2023-05-19T05:50:15.025Z,16.46
2023-05-19T05:52:47.714Z,16.53
2023-05-19T05:55:19.510Z,16.74
2023-05-19T05:57:48.870Z,16.91
2023-05-19T06:00:16.625Z,17.02
2023-05-19T06:02:49.653Z,17.22
2023-05-19T06:05:18.013Z,17.45
2023-05-19T06:07:46.976Z,17.44
2023-05-19T06:10:19.298Z,17.62
2023-05-19T06:12:47.891Z,17.56
2023-05-19T06:15:16.380Z,17.72
2023-05-19T06:17:50.846Z,17.89
2023-05-19T06:20:18.937Z,18.00
2023-05-19T06:22:46.092Z,18.05
2023-05-19T06:25:16.994Z,18.13
2023-05-19T06:27:44.322Z,18.15
2023-05-19T06:30:12.431Z,18.15
2023-05-19T06:32:49.792Z,18.30
2023-05-19T06:35:17.249Z,18.38
2023-05-19T06:37:44.186Z,18.48
2023-05-19T06:40:12.247Z,18.54
2023-05-19T06:42:40.180Z,18.56
2023-05-19T06:45:15.447Z,18.53
2023-05-19T06:47:42.766Z,18.76
2023-05-19T06:50:10.703Z,18.97
2023-05-19T06:52:41.388Z,18.88
2023-05-19T06:55:08.743Z,18.95
2023-05-19T06:57:38.233Z,18.88
2023-05-19T07:00:10.368Z,18.87
2023-05-19T07:02:39.397Z,18.73
2023-05-19T07:05:06.853Z,18.91
2023-05-19T07:07:34.805Z,18.97
2023-05-19T07:10:02.849Z,19.06
2023-05-19T07:12:32.707Z,19.15
2023-05-19T07:14:59.869Z,19.15
2023-05-19T07:17:28.048Z,19.17
2023-05-19T07:19:55.205Z,19.38
2023-05-19T07:22:22.315Z,19.15
2023-05-19T07:24:50.566Z,19.21
2023-05-19T07:27:18.044Z,19.25
2023-05-19T07:29:45.896Z,19.15
2023-05-19T07:32:14.396Z,19.23
2023-05-19T07:34:41.597Z,19.54
2023-05-19T07:37:08.736Z,19.83
2023-05-19T07:39:36.109Z,19.88
2023-05-19T07:42:03.493Z,19.96
2023-05-19T07:44:31.677Z,19.98
2023-05-19T07:46:59.177Z,19.90
2023-05-19T07:49:26.657Z,20.00
2023-05-19T07:51:54.258Z,20.27
2023-05-19T07:54:21.447Z,20.39
2023-05-19T07:56:48.503Z,20.49
2023-05-19T07:59:16.253Z,20.63
2023-05-19T08:01:43.490Z,20.64
2023-05-19T08:04:12.833Z,20.79
2023-05-19T08:06:43.083Z,20.86
2023-05-19T08:09:10.326Z,20.70
2023-05-19T08:11:37.652Z,20.82
2023-05-19T08:14:04.674Z,20.96
2023-05-19T08:16:31.905Z,21.13
2023-05-19T08:19:01.242Z,21.32
2023-05-19T08:21:28.511Z,21.49
2023-05-19T08:23:57.214Z,21.61
2023-05-19T08:26:24.233Z,21.62
2023-05-19T08:28:51.268Z,21.69
2023-05-19T08:31:19.044Z,21.64
2023-05-19T08:33:46.670Z,21.47
2023-05-19T08:36:14.288Z,21.25
2023-05-19T08:38:41.151Z,21.49
2023-05-19T08:41:08.347Z,21.61
2023-05-19T08:43:35.590Z,21.70
2023-05-19T08:46:04.053Z,21.85
2023-05-19T08:48:31.636Z,21.98
2023-05-19T08:51:27.102Z,22.11
2023-05-19T08:54:00.474Z,22.19
2023-05-19T08:56:28.189Z,22.29
2023-05-19T08:58:59.763Z,22.42
2023-05-19T09:01:29.495Z,22.55
2023-05-19T09:03:56.728Z,22.57
2023-05-19T09:06:24.190Z,22.63
2023-05-19T09:08:51.153Z,22.59
2023-05-19T09:11:18.462Z,22.66
2023-05-19T09:13:46.213Z,22.78
2023-05-19T09:16:13.384Z,22.36
2023-05-19T09:18:43.332Z,22.49
2023-05-19T09:21:11.316Z,22.11
2023-05-19T09:23:38.456Z,22.53
2023-05-19T09:26:09.304Z,22.59
2023-05-19T09:28:37.020Z,22.52
2023-05-19T09:31:05.234Z,22.74
2023-05-19T09:33:37.580Z,22.91
2023-05-19T09:36:13.850Z,23.10
2023-05-19T09:38:41.587Z,22.92
2023-05-19T09:41:09.580Z,23.10
2023-05-19T09:43:36.916Z,23.31
2023-05-19T09:46:08.061Z,23.51
2023-05-19T09:48:36.764Z,23.55
2023-05-19T09:51:08.170Z,23.32
2023-05-19T09:53:35.536Z,23.26
2023-05-19T09:56:03.691Z,23.41
2023-05-19T09:58:37.852Z,23.51
2023-05-19T10:01:06.046Z,23.80
2023-05-19T10:03:34.773Z,23.63
2023-05-19T10:06:03.803Z,23.57
2023-05-19T10:08:32.397Z,23.37
2023-05-19T10:11:00.073Z,23.59
2023-05-19T10:13:29.072Z,23.64
2023-05-19T10:15:59.205Z,23.99
2023-05-19T10:18:29.679Z,23.98
2023-05-19T10:20:58.293Z,23.93
2023-05-19T10:23:26.238Z,23.57
2023-05-19T10:25:56.706Z,23.40
2023-05-19T10:28:28.215Z,23.56
2023-05-19T10:31:01.534Z,23.49
2023-05-19T10:34:01.033Z,23.40
2023-05-19T10:36:50.434Z,23.16
2023-05-19T10:39:29.185Z,23.11
2023-05-19T10:41:59.161Z,23.12
2023-05-19T10:45:10.799Z,23.18
2023-05-19T10:47:37.826Z,23.45
2023-05-19T10:50:06.950Z,23.31
2023-05-19T10:52:37.867Z,23.42
2023-05-19T10:55:08.876Z,23.42
2023-05-19T10:57:36.765Z,22.87
2023-05-19T11:00:25.702Z,22.86
2023-05-19T11:02:56.539Z,22.99
2023-05-19T11:05:30.456Z,22.82
2023-05-19T11:08:07.854Z,23.14
2023-05-19T11:10:35.084Z,23.56
2023-05-19T11:13:02.082Z,23.96
2023-05-19T11:15:29.163Z,24.10
2023-05-19T11:17:56.906Z,24.19
2023-05-19T11:20:24.711Z,24.51
2023-05-19T11:23:03.815Z,24.39
2023-05-19T11:25:51.615Z,24.21
2023-05-19T11:28:21.451Z,24.39
2023-05-19T11:30:52.599Z,24.40
2023-05-19T11:33:27.327Z,24.81
2023-05-19T11:35:58.417Z,24.43
2023-05-19T11:38:26.591Z,24.35
2023-05-19T11:40:54.346Z,24.28
2023-05-19T11:43:25.678Z,23.98
2023-05-19T11:45:53.915Z,24.15
2023-05-19T11:48:21.792Z,24.24
2023-05-19T11:50:48.888Z,24.22
2023-05-19T11:53:17.101Z,23.75
2023-05-19T11:55:48.545Z,23.75
2023-05-19T11:58:16.340Z,23.70
2023-05-19T12:00:46.146Z,23.73
2023-05-19T12:03:13.673Z,23.55
2023-05-19T12:05:46.681Z,23.51
2023-05-19T12:08:16.704Z,23.57
2023-05-19T12:10:43.825Z,23.51
2023-05-19T12:13:11.261Z,23.57
2023-05-19T12:15:38.914Z,23.42
2023-05-19T12:18:06.867Z,22.93
2023-05-19T12:20:35.997Z,22.36
2023-05-19T12:23:04.223Z,22.18
2023-05-19T12:25:32.408Z,21.56
2023-05-19T12:28:03.192Z,21.21
2023-05-19T12:30:32.057Z,20.92
2023-05-19T12:32:59.644Z,20.50
2023-05-19T12:35:28.086Z,20.26
2023-05-19T12:37:55.990Z,20.04
2023-05-19T12:40:23.298Z,19.62
2023-05-19T12:42:53.446Z,19.33
2023-05-19T12:45:23.135Z,19.30
2023-05-19T12:47:51.496Z,19.16
2023-05-19T12:50:19.020Z,19.21
2023-05-19T12:52:48.192Z,19.16
2023-05-19T12:55:16.752Z,19.05
2023-05-19T12:57:57.388Z,18.88
2023-05-19T13:00:28.412Z,18.74
2023-05-19T13:02:56.458Z,18.54
2023-05-19T13:05:24.311Z,18.54
2023-05-19T13:08:22.038Z,18.65
2023-05-19T13:10:49.868Z,18.73
2023-05-19T13:13:17.838Z,18.85
2023-05-19T13:15:46.177Z,18.90
2023-05-19T13:18:14.751Z,19.06
2023-05-19T13:20:44.578Z,19.18
2023-05-19T13:23:12.586Z,19.47
2023-05-19T13:25:40.062Z,19.64
2023-05-19T13:28:07.187Z,19.84
2023-05-19T13:30:39.572Z,20.01
2023-05-19T13:33:07.011Z,20.15
2023-05-19T13:35:37.586Z,20.38
2023-05-19T13:38:11.464Z,20.83
2023-05-19T13:40:39.804Z,21.23
2023-05-19T13:43:09.136Z,21.52
2023-05-19T13:45:36.931Z,21.92
2023-05-19T13:48:04.210Z,22.25
2023-05-19T13:50:31.387Z,22.49
2023-05-19T13:52:58.506Z,22.61
2023-05-19T13:55:27.488Z,22.49
2023-05-19T13:57:54.800Z,22.44
2023-05-19T14:00:22.123Z,22.07
2023-05-19T14:02:49.263Z,21.64
2023-05-19T14:05:16.602Z,21.51
2023-05-19T14:07:44.752Z,21.59
2023-05-19T14:10:11.806Z,21.63
2023-05-19T14:12:55.060Z,21.67
2023-05-19T14:15:27.088Z,21.60
2023-05-19T14:17:54.336Z,21.47
2023-05-19T14:20:21.991Z,21.53
2023-05-19T14:22:48.969Z,21.49
2023-05-19T14:25:16.289Z,21.44
2023-05-19T14:27:43.489Z,21.49
2023-05-19T14:30:10.871Z,21.48
2023-05-19T14:32:38.097Z,21.51
2023-05-19T14:35:06.087Z,21.47
2023-05-19T14:37:33.134Z,21.47
2023-05-19T14:40:00.465Z,21.58
2023-05-19T14:42:27.530Z,21.61
2023-05-19T14:44:54.716Z,21.83
2023-05-19T14:47:21.847Z,21.93
2023-05-19T14:49:49.010Z,22.01
2023-05-19T14:52:16.063Z,21.95
2023-05-19T14:54:43.612Z,21.92
2023-05-19T14:57:10.778Z,21.84
2023-05-19T14:59:38.903Z,21.62
2023-05-19T15:02:06.670Z,21.59
2023-05-19T15:04:33.831Z,21.49
2023-05-19T15:09:30.804Z,21.27
2023-05-19T15:11:58.249Z,21.17
2023-05-19T15:14:26.638Z,21.16
2023-05-19T15:16:54.966Z,21.13
2023-05-19T15:19:22.053Z,21.05
2023-05-19T15:21:50.940Z,20.93
2023-05-19T15:24:18.055Z,20.85
2023-05-19T15:26:45.847Z,20.85
2023-05-19T15:29:13.178Z,20.90
2023-05-19T15:31:40.206Z,20.90
2023-05-19T15:34:07.362Z,20.92
2023-05-19T15:36:34.214Z,20.80
2023-05-19T15:39:01.184Z,20.81
2023-05-19T15:41:28.382Z,20.74
2023-05-19T15:43:55.252Z,20.79
2023-05-19T15:46:22.803Z,20.80
2023-05-19T15:48:49.874Z,20.67
2023-05-19T15:51:17.123Z,20.67
2023-05-19T15:53:44.214Z,20.56
2023-05-19T15:56:11.341Z,20.47
2023-05-19T15:58:38.362Z,20.56
2023-05-19T16:01:06.213Z,20.52
2023-05-19T16:03:33.383Z,20.54
2023-05-19T16:06:01.186Z,20.49
2023-05-19T16:08:28.782Z,20.50
2023-05-19T16:10:56.208Z,20.51
2023-05-19T16:13:23.286Z,20.50
2023-05-19T16:15:50.693Z,20.47
2023-05-19T16:18:17.823Z,20.41
2023-05-19T16:20:45.176Z,20.40
2023-05-19T16:23:12.106Z,20.35
2023-05-19T16:25:39.153Z,20.29
2023-05-19T16:28:06.305Z,20.23
2023-05-19T16:30:33.652Z,20.14
2023-05-19T16:33:01.170Z,20.06
2023-05-19T16:35:29.845Z,20.02
2023-05-19T16:37:56.948Z,20.03
2023-05-19T16:40:24.622Z,20.03
2023-05-19T16:42:53.343Z,20.00
2023-05-19T16:45:20.796Z,19.98
2023-05-19T16:47:47.935Z,19.99
2023-05-19T16:50:15.266Z,19.99
2023-05-19T16:52:42.378Z,19.87
2023-05-19T16:55:09.906Z,19.93
2023-05-19T16:57:37.003Z,19.93
2023-05-19T17:00:04.891Z,19.95
2023-05-19T17:02:32.151Z,19.90
2023-05-19T17:04:59.685Z,19.95
2023-05-19T17:07:29.233Z,19.80
2023-05-19T17:09:56.271Z,19.87
2023-05-19T17:12:23.738Z,19.76
2023-05-19T17:14:52.153Z,19.75
2023-05-19T17:17:19.746Z,19.69
2023-05-19T17:19:47.008Z,19.62
2023-05-19T17:22:14.292Z,19.55
2023-05-19T17:24:41.515Z,19.44
2023-05-19T17:27:08.522Z,19.35
2023-05-19T17:29:36.704Z,19.20
2023-05-19T17:32:04.212Z,19.10
2023-05-19T17:34:31.378Z,18.98
2023-05-19T17:36:58.678Z,18.98
2023-05-19T17:39:25.733Z,18.82
2023-05-19T17:41:52.870Z,18.63
2023-05-19T17:44:19.744Z,18.64
2023-05-19T17:46:46.734Z,18.61
2023-05-19T17:49:16.429Z,18.53
2023-05-19T17:51:44.073Z,18.37
2023-05-19T17:54:11.315Z,18.34
2023-05-19T17:56:44.518Z,18.09
2023-05-19T17:59:11.848Z,18.19
2023-05-19T18:01:41.719Z,17.96
2023-05-19T18:04:09.305Z,18.01
2023-05-19T18:06:41.000Z,17.78
2023-05-19T18:09:10.948Z,17.71
2023-05-19T18:11:38.011Z,17.62
2023-05-19T18:14:04.984Z,17.58
2023-05-19T18:16:32.093Z,17.40
2023-05-19T18:19:01.022Z,17.40
2023-05-19T18:21:28.201Z,17.31
2023-05-19T18:23:55.267Z,17.24
2023-05-19T18:26:22.523Z,17.12
2023-05-19T18:28:51.919Z,17.12
2023-05-19T18:31:20.270Z,17.01
2023-05-19T18:33:47.380Z,17.10
2023-05-19T18:36:16.578Z,17.06
2023-05-19T18:38:43.749Z,17.02
2023-05-19T18:41:11.187Z,16.98
2023-05-19T18:43:39.060Z,16.96
2023-05-19T18:46:09.205Z,16.96
2023-05-19T18:48:36.552Z,16.92
2023-05-19T18:51:03.967Z,16.91
2023-05-19T18:53:37.130Z,16.86
2023-05-19T18:56:04.291Z,16.94
2023-05-19T18:58:32.815Z,16.88
2023-05-19T19:00:59.871Z,16.94
2023-05-19T19:03:28.779Z,16.94
2023-05-19T19:05:56.462Z,16.93
2023-05-19T19:08:24.570Z,16.94
2023-05-19T19:10:52.168Z,16.96
2023-05-19T19:13:19.317Z,16.81
2023-05-19T19:15:46.755Z,16.81
2023-05-19T19:18:13.983Z,16.65
2023-05-19T19:20:41.090Z,16.60
2023-05-19T19:23:10.726Z,16.60
2023-05-19T19:25:37.766Z,16.47
2023-05-19T19:28:05.069Z,16.30
2023-05-19T19:30:32.355Z,16.46
2023-05-19T19:33:00.447Z,16.32
2023-05-19T19:35:27.374Z,16.30
2023-05-19T19:37:58.679Z,16.37
2023-05-19T19:40:25.841Z,16.36
2023-05-19T19:42:52.925Z,16.34
2023-05-19T19:45:21.034Z,16.33
2023-05-19T19:47:48.230Z,16.31
2023-05-19T19:50:15.639Z,16.30
2023-05-19T19:52:42.523Z,16.29
2023-05-19T19:55:09.918Z,16.20
2023-05-19T19:57:37.003Z,16.22
2023-05-19T20:00:08.377Z,16.16
2023-05-19T20:02:43.137Z,16.21
2023-05-19T20:05:18.607Z,16.14
2023-05-19T20:07:45.650Z,16.13
2023-05-19T20:10:12.610Z,16.20
2023-05-19T20:12:39.593Z,16.18
2023-05-19T20:15:07.474Z,16.11
2023-05-19T20:17:34.722Z,16.13
2023-05-19T20:20:04.743Z,16.05
2023-05-19T20:22:31.834Z,16.07
2023-05-19T20:24:58.770Z,16.09
2023-05-19T20:27:25.956Z,16.02
2023-05-19T20:29:52.851Z,15.93
2023-05-19T20:32:19.857Z,15.98
2023-05-19T20:34:46.801Z,16.03
2023-05-19T20:37:13.990Z,16.04
2023-05-19T20:39:40.996Z,16.03
2023-05-19T20:42:08.483Z,15.94
2023-05-19T20:44:35.847Z,15.92
2023-05-19T20:47:02.802Z,15.94
2023-05-19T20:49:29.756Z,15.95
2023-05-19T20:51:57.105Z,15.99
2023-05-19T20:54:23.975Z,15.97
2023-05-19T20:56:51.904Z,16.02
2023-05-19T20:59:18.993Z,15.94
2023-05-19T21:01:46.087Z,16.00
2023-05-19T21:04:13.277Z,16.01
2023-05-19T21:06:40.249Z,15.96
2023-05-19T21:09:07.481Z,16.00
2023-05-19T21:11:34.686Z,15.97
2023-05-19T21:14:04.555Z,15.92
2023-05-19T21:16:32.116Z,16.01
2023-05-19T21:18:59.228Z,15.97
2023-05-19T21:21:26.505Z,15.97
2023-05-19T21:23:53.383Z,15.95
2023-05-19T21:26:21.744Z,15.95
2023-05-19T21:28:48.814Z,15.91
2023-05-19T21:31:16.154Z,15.89
2023-05-19T21:33:43.411Z,15.92
2023-05-19T21:36:10.475Z,15.83
2023-05-19T21:38:37.621Z,15.87
2023-05-19T21:41:04.523Z,15.96
2023-05-19T21:43:31.520Z,15.95
2023-05-19T21:45:58.359Z,15.94
2023-05-19T21:48:25.220Z,15.90
2023-05-19T21:50:54.908Z,15.91
2023-05-19T21:53:21.894Z,15.90
2023-05-19T21:55:49.033Z,15.82
2023-05-19T21:58:16.291Z,15.78
2023-05-19T22:00:49.226Z,15.72
2023-05-19T22:03:16.349Z,15.77
2023-05-19T22:05:48.816Z,15.72
2023-05-19T22:08:15.990Z,15.73
2023-05-19T22:10:42.814Z,15.71
2023-05-19T22:13:09.799Z,15.64
2023-05-19T22:15:38.331Z,15.63
2023-05-19T22:18:05.270Z,15.58
2023-05-19T22:20:32.476Z,15.43
2023-05-19T22:23:01.292Z,15.51
2023-05-19T22:25:28.252Z,15.47
2023-05-19T22:27:55.465Z,15.46
2023-05-19T22:30:23.047Z,15.39
2023-05-19T22:32:50.252Z,15.35
2023-05-19T22:35:18.899Z,15.37
2023-05-19T22:37:45.816Z,15.34
2023-05-19T22:40:13.235Z,15.32
2023-05-19T22:42:40.194Z,15.32
2023-05-19T22:45:07.634Z,15.34
2023-05-19T22:47:34.634Z,15.35
2023-05-19T22:50:01.587Z,15.39
2023-05-19T22:52:28.561Z,15.37
2023-05-19T22:54:55.655Z,15.39
2023-05-19T22:57:22.633Z,15.38
2023-05-19T22:59:49.471Z,15.38
2023-05-19T23:02:16.470Z,15.39
2023-05-19T23:04:43.390Z,15.25
2023-05-19T23:07:10.653Z,15.38
2023-05-19T23:09:37.513Z,15.29
2023-05-19T23:12:04.758Z,15.27
2023-05-19T23:14:31.807Z,15.29
2023-05-19T23:16:58.864Z,15.30
2023-05-19T23:19:25.808Z,15.38
2023-05-19T23:21:52.951Z,15.39
2023-05-19T23:24:19.765Z,15.34
2023-05-19T23:26:46.724Z,15.39
2023-05-19T23:29:14.863Z,15.37
2023-05-19T23:31:42.207Z,15.35
2023-05-19T23:34:09.198Z,15.38
2023-05-19T23:36:36.810Z,15.38
2023-05-19T23:39:03.911Z,15.21
2023-05-19T23:41:31.624Z,15.33
2023-05-19T23:43:58.501Z,15.34
2023-05-19T23:46:25.652Z,15.32
2023-05-19T23:48:52.731Z,15.23
2023-05-19T23:51:19.590Z,15.25
2023-05-19T23:53:46.599Z,15.23
2023-05-19T23:56:13.694Z,15.18
2023-05-19T23:58:40.895Z,15.13
